Time;durP1;ratioP1;P1;durP2;ratioP2;P2;SDS_P1;SDS_P2;PMS_P1;PMS_P2;Temp;Humidity;BMP_temperature;BMP_pressure;BME280_temperature;BME280_humidity;BME280_pressure;Samples;Min_cycle;Max_cycle;Signal;HPM_P1;HPM_P2
2022/03/02 00:02:06;;;;;;;161.10;67.20;;;;;;;-3.76;65.20;101636.94;52824;1271;1016655;-79
2022/03/02 00:04:38;;;;;;;159.60;63.20;;;;;;;-3.81;65.33;101637.02;52904;1271;1016616;-77
2022/03/02 00:07:10;;;;;;;146.40;64.60;;;;;;;-3.86;65.55;101633.83;52905;1271;1016362;-78
2022/03/02 00:09:42;;;;;;;156.20;66.30;;;;;;;-3.95;65.65;101632.40;52758;1271;1017146;-78
2022/03/02 00:12:14;;;;;;;161.00;68.40;;;;;;;-3.96;65.68;101629.35;52927;1271;1016311;-78
2022/03/02 00:14:45;;;;;;;161.20;67.10;;;;;;;-3.96;65.63;101628.41;52835;1271;1015932;-78
2022/03/02 00:17:16;;;;;;;156.20;64.60;;;;;;;-3.96;65.59;101631.23;52808;1271;1016739;-77
2022/03/02 00:19:47;;;;;;;159.50;65.50;;;;;;;-3.94;65.52;101628.06;52848;1271;1016639;-77
2022/03/02 00:22:19;;;;;;;157.00;64.60;;;;;;;-3.93;65.48;101624.45;52806;1271;1016516;-78
2022/03/02 00:24:51;;;;;;;159.70;63.30;;;;;;;-3.91;65.51;101627.77;52816;1271;1017508;-77
2022/03/02 00:27:24;;;;;;;144.00;62.10;;;;;;;-3.91;65.49;101626.84;52899;1271;1016218;-78
2022/03/02 00:29:56;;;;;;;140.90;60.50;;;;;;;-3.94;65.39;101623.17;52936;1271;1016065;-78
2022/03/02 00:32:28;;;;;;;142.80;59.10;;;;;;;-4.01;65.34;101625.16;52909;1271;1016593;-78
2022/03/02 00:35:00;;;;;;;155.90;64.60;;;;;;;-4.10;65.33;101624.05;52884;1271;1016569;-78
2022/03/02 00:37:32;;;;;;;164.80;68.00;;;;;;;-4.17;65.72;101628.29;52853;1271;1016430;-78
2022/03/02 00:40:03;;;;;;;165.40;66.20;;;;;;;-4.22;65.95;101626.61;52781;1271;1016301;-77
2022/03/02 00:42:35;;;;;;;147.60;61.10;;;;;;;-4.25;66.39;101622.36;52910;1271;1016659;-77
2022/03/02 00:45:07;;;;;;;140.70;58.50;;;;;;;-4.28;66.97;101627.19;52935;1271;1018385;-78
2022/03/02 00:47:41;;;;;;;131.80;55.90;;;;;;;-4.32;67.24;101623.11;52803;1271;1016074;-78
2022/03/02 00:50:15;;;;;;;136.30;52.30;;;;;;;-4.34;67.21;101622.66;52997;1271;1015528;-78
2022/03/02 00:52:47;;;;;;;148.40;58.50;;;;;;;-4.35;66.83;101621.39;52961;1271;1017107;-77
2022/03/02 00:55:19;;;;;;;126.80;52.10;;;;;;;-4.35;66.66;101621.56;52917;1271;1016073;-78
2022/03/02 00:57:50;;;;;;;140.20;54.80;;;;;;;-4.36;66.47;101618.88;52901;1271;1016148;-77
2022/03/02 01:00:22;;;;;;;135.50;55.50;;;;;;;-4.38;66.43;101609.63;52800;1271;1016241;-78
2022/03/02 01:02:54;;;;;;;132.70;55.40;;;;;;;-4.41;66.55;101604.30;52772;1271;1016634;-77
2022/03/02 01:05:27;;;;;;;142.30;55.30;;;;;;;-4.42;66.52;101602.02;52863;1271;1016166;-78
2022/03/02 01:07:59;;;;;;;133.40;53.20;;;;;;;-4.46;66.43;101599.88;52879;1271;1015787;-78
2022/03/02 01:10:30;;;;;;;136.20;51.80;;;;;;;-4.49;66.51;101599.30;52724;1271;1016779;-78
2022/03/02 01:13:01;;;;;;;139.40;57.10;;;;;;;-4.51;66.60;101599.66;52938;1271;1016633;-78
2022/03/02 01:15:33;;;;;;;132.40;54.60;;;;;;;-4.52;66.79;101594.32;52830;1271;1018243;-78
2022/03/02 01:18:05;;;;;;;124.80;51.90;;;;;;;-4.54;66.90;101589.67;52777;1271;1016093;-78
2022/03/02 01:20:36;;;;;;;120.60;51.30;;;;;;;-4.54;66.77;101591.70;52802;1271;1016669;-78
2022/03/02 01:23:08;;;;;;;127.10;52.10;;;;;;;-4.54;66.70;101591.55;52875;1271;1016348;-78
2022/03/02 01:25:39;;;;;;;126.50;51.90;;;;;;;-4.57;66.50;101586.07;52925;1271;1017114;-78
2022/03/02 01:28:10;;;;;;;125.70;54.50;;;;;;;-4.62;66.67;101587.48;52835;1271;1016503;-78
2022/03/02 01:30:42;;;;;;;119.10;48.30;;;;;;;-4.67;66.76;101581.80;52917;1271;1016674;-77
2022/03/02 01:33:13;;;;;;;130.60;48.60;;;;;;;-4.70;67.14;101580.70;52770;1271;1016089;-77
2022/03/02 01:35:44;;;;;;;130.90;49.50;;;;;;;-4.73;67.31;101578.36;52937;1271;1018205;-78
2022/03/02 01:38:15;;;;;;;127.90;49.30;;;;;;;-4.76;67.33;101575.92;52803;1271;1016698;-77
2022/03/02 01:40:46;;;;;;;120.10;49.10;;;;;;;-4.76;67.03;101571.40;52885;1271;1016007;-77
2022/03/02 01:43:17;;;;;;;122.40;48.60;;;;;;;-4.74;66.93;101566.80;52785;1271;1016454;-77
2022/03/02 01:45:50;;;;;;;110.40;50.10;;;;;;;-4.71;66.78;101565.25;52916;1271;1015945;-77
2022/03/02 01:48:21;;;;;;;118.00;47.00;;;;;;;-4.71;66.72;101558.73;52829;1270;1016255;-77
2022/03/02 01:50:53;;;;;;;116.80;48.70;;;;;;;-4.77;66.57;101550.68;52873;1271;1016558;-77
2022/03/02 01:53:25;;;;;;;120.70;50.10;;;;;;;-4.86;66.61;101547.55;52940;1271;1016324;-78
2022/03/02 01:55:59;;;;;;;122.30;49.40;;;;;;;-4.92;66.69;101547.04;52928;1271;1016828;-77
2022/03/02 01:58:32;;;;;;;131.70;49.50;;;;;;;-4.96;66.81;101543.88;52892;1271;1016323;-78
2022/03/02 02:01:04;;;;;;;126.60;51.00;;;;;;;-4.99;66.96;101544.49;52897;1271;1016513;-77
2022/03/02 02:03:35;;;;;;;117.20;48.50;;;;;;;-5.01;66.85;101539.69;52990;1270;1016664;-77
2022/03/02 02:06:08;;;;;;;118.30;49.40;;;;;;;-5.03;66.81;101543.67;53000;1271;1016410;-77
2022/03/02 02:08:40;;;;;;;125.70;49.60;;;;;;;-5.05;66.71;101535.14;52873;1271;1016491;-77
2022/03/02 02:11:13;;;;;;;133.00;51.10;;;;;;;-5.10;66.79;101533.50;52854;1271;1015999;-77
2022/03/02 02:13:44;;;;;;;122.50;47.90;;;;;;;-5.16;66.96;101523.95;52989;1270;1015754;-77
2022/03/02 02:16:17;;;;;;;138.20;55.10;;;;;;;-5.24;67.04;101523.71;52752;1271;1016575;-77
2022/03/02 02:18:50;;;;;;;131.70;51.70;;;;;;;-5.28;67.31;101522.44;52817;1271;1015945;-78
2022/03/02 02:21:22;;;;;;;128.40;52.70;;;;;;;-5.31;67.33;101517.92;52775;1271;1015859;-78
2022/03/02 02:23:53;;;;;;;125.40;51.10;;;;;;;-5.34;67.36;101518.81;52890;1271;1016652;-78
2022/03/02 02:26:25;;;;;;;131.10;53.20;;;;;;;-5.39;67.44;101516.94;52805;1271;1016680;-77
2022/03/02 02:28:58;;;;;;;118.80;51.10;;;;;;;-5.43;67.45;101513.64;52898;1271;1018329;-77
2022/03/02 02:31:29;;;;;;;125.20;50.00;;;;;;;-5.41;67.39;101515.17;52942;1270;1016128;-77
2022/03/02 02:34:02;;;;;;;129.20;51.70;;;;;;;-5.41;67.42;101511.38;52905;1271;1016569;-78
2022/03/02 02:36:34;;;;;;;123.20;49.70;;;;;;;-5.43;67.31;101508.74;52986;1271;1016220;-78
2022/03/02 02:39:06;;;;;;;123.60;46.70;;;;;;;-5.44;67.41;101504.66;52865;1271;1016520;-78
2022/03/02 02:41:38;;;;;;;119.40;48.00;;;;;;;-5.42;67.41;101505.36;52934;1271;1016631;-77
2022/03/02 02:44:09;;;;;;;114.70;48.00;;;;;;;-5.38;67.34;101500.27;52975;1270;1015737;-78
2022/03/02 02:46:44;;;;;;;127.60;49.30;;;;;;;-5.35;67.22;101496.69;53023;1271;1017155;-78
2022/03/02 02:49:15;;;;;;;126.60;49.60;;;;;;;-5.39;67.04;101497.20;53044;1271;1016071;-77
2022/03/02 02:51:47;;;;;;;121.20;49.10;;;;;;;-5.44;67.12;101499.77;52915;1271;1016414;-77
2022/03/02 02:54:18;;;;;;;116.80;48.70;;;;;;;-5.49;67.10;101500.23;52948;1271;1016009;-77
2022/03/02 02:56:49;;;;;;;125.00;50.50;;;;;;;-5.54;67.08;101504.02;52767;1271;1015986;-77
2022/03/02 02:59:22;;;;;;;126.80;49.80;;;;;;;-5.61;67.24;101503.89;52776;1271;1019705;-78
2022/03/02 03:01:53;;;;;;;122.50;50.10;;;;;;;-5.67;67.37;101505.08;52777;1271;1016329;-78
2022/03/02 03:04:24;;;;;;;125.10;49.70;;;;;;;-5.69;67.56;101502.30;52861;1271;1018181;-77
2022/03/02 03:06:55;;;;;;;130.60;50.40;;;;;;;-5.70;67.64;101502.79;52822;1270;1016593;-77
2022/03/02 03:09:26;;;;;;;125.50;48.60;;;;;;;-5.72;67.72;101499.80;52880;1271;1016651;-79
2022/03/02 03:11:57;;;;;;;130.10;52.50;;;;;;;-5.73;67.77;101496.88;52767;1271;1016682;-78
2022/03/02 03:14:28;;;;;;;128.80;50.40;;;;;;;-5.77;67.95;101498.00;52940;1271;1018931;-78
2022/03/02 03:16:59;;;;;;;122.10;49.50;;;;;;;-5.79;67.83;101499.02;52755;1271;1016524;-78
2022/03/02 03:19:30;;;;;;;119.70;48.50;;;;;;;-5.81;67.97;101497.10;52849;1273;1016587;-77
2022/03/02 03:22:08;;;;;;;125.30;53.30;;;;;;;-5.84;68.13;101497.48;52832;1271;1016645;-78
2022/03/02 03:24:39;;;;;;;125.70;49.00;;;;;;;-5.85;68.23;101496.67;52799;1271;1016500;-78
2022/03/02 03:27:11;;;;;;;128.60;51.60;;;;;;;-5.86;68.33;101492.30;52913;1271;1016418;-78
2022/03/02 03:29:42;;;;;;;135.30;51.80;;;;;;;-5.86;68.30;101494.25;52853;1270;1016108;-78
2022/03/02 03:32:14;;;;;;;118.30;48.50;;;;;;;-5.82;68.02;101491.30;52787;1271;1016484;-78
2022/03/02 03:34:46;;;;;;;117.50;49.10;;;;;;;-5.79;68.00;101488.69;52771;1271;1016181;-77
2022/03/02 03:37:17;;;;;;;122.10;49.00;;;;;;;-5.76;67.77;101484.27;52815;1271;1016477;-78
2022/03/02 03:39:49;;;;;;;118.70;47.10;;;;;;;-5.74;67.64;101485.33;52992;1271;1016135;-78
2022/03/02 03:42:23;;;;;;;119.70;49.00;;;;;;;-5.73;67.55;101487.70;52993;1271;1019851;-77
2022/03/02 03:44:54;;;;;;;115.40;45.60;;;;;;;-5.74;67.53;101488.70;52734;1271;1020045;-77
2022/03/02 03:47:26;;;;;;;110.60;44.80;;;;;;;-5.72;67.58;101482.91;52787;1271;1016349;-78
2022/03/02 03:49:57;;;;;;;113.40;43.80;;;;;;;-5.71;67.49;101477.27;52802;1270;1016596;-78
2022/03/02 03:52:29;;;;;;;117.10;44.90;;;;;;;-5.71;67.39;101477.80;52897;1271;1019184;-77
2022/03/02 03:55:02;;;;;;;108.30;46.70;;;;;;;-5.72;67.46;101476.48;52728;1271;1021005;-78
2022/03/02 03:57:33;;;;;;;106.50;43.70;;;;;;;-5.71;67.44;101475.86;52981;1271;1017249;-78
2022/03/02 04:00:09;;;;;;;107.10;42.10;;;;;;;-5.70;67.42;101476.36;52807;1271;1016562;-78
2022/03/02 04:02:40;;;;;;;105.50;43.90;;;;;;;-5.70;67.35;101475.61;52844;1270;1018218;-78
2022/03/02 04:05:12;;;;;;;114.50;44.20;;;;;;;-5.71;67.43;101470.89;52937;1271;1016590;-78
2022/03/02 04:07:45;;;;;;;116.20;45.60;;;;;;;-5.73;67.38;101471.06;53011;1271;1016754;-78
2022/03/02 04:10:16;;;;;;;111.10;44.00;;;;;;;-5.77;67.38;101469.56;52936;1271;1016760;-79
2022/03/02 04:12:48;;;;;;;104.90;46.20;;;;;;;-5.78;67.39;101470.54;52922;1271;1016190;-78
2022/03/02 04:15:19;;;;;;;112.20;45.80;;;;;;;-5.79;67.38;101470.68;52880;1271;1016245;-78
2022/03/02 04:17:51;;;;;;;105.90;44.80;;;;;;;-5.81;67.56;101465.31;52841;1271;1016495;-78
2022/03/02 04:20:22;;;;;;;115.70;46.60;;;;;;;-5.86;67.37;101470.38;52871;1271;1016712;-79
2022/03/02 04:22:53;;;;;;;107.50;44.90;;;;;;;-5.89;67.40;101468.44;52912;1271;1016350;-78
2022/03/02 04:25:24;;;;;;;119.30;44.80;;;;;;;-5.89;67.39;101467.54;52781;1271;1016067;-79
2022/03/02 04:27:55;;;;;;;104.30;42.70;;;;;;;-5.89;67.45;101465.39;52962;1271;1016542;-78
2022/03/02 04:30:27;;;;;;;112.90;45.00;;;;;;;-5.88;67.48;101463.11;52839;1271;1016348;-78
2022/03/02 04:32:58;;;;;;;119.00;46.50;;;;;;;-5.91;67.57;101452.35;52874;1270;1016494;-79
2022/03/02 04:35:31;;;;;;;119.70;44.20;;;;;;;-5.94;67.73;101451.55;52803;1271;1015966;-78
2022/03/02 04:38:03;;;;;;;123.10;46.30;;;;;;;-6.01;67.55;101445.65;53028;1271;1015948;-79
2022/03/02 04:40:35;;;;;;;102.00;44.20;;;;;;;-6.09;67.59;101441.88;52912;1271;1017654;-78
2022/03/02 04:43:07;;;;;;;117.70;44.50;;;;;;;-6.15;67.40;101439.04;52880;1271;1016813;-77
2022/03/02 04:45:39;;;;;;;108.50;44.30;;;;;;;-6.20;67.56;101436.94;52873;1271;1015908;-77
2022/03/02 04:48:10;;;;;;;114.20;46.30;;;;;;;-6.23;67.52;101435.58;52867;1271;1017285;-78
2022/03/02 04:50:41;;;;;;;110.50;46.00;;;;;;;-6.26;67.77;101434.08;52795;1271;1018538;-76
2022/03/02 04:53:14;;;;;;;115.50;45.80;;;;;;;-6.27;67.89;101435.15;52858;1271;1016324;-77
2022/03/02 04:55:46;;;;;;;113.90;44.60;;;;;;;-6.26;67.91;101434.11;52818;1271;1016570;-77
2022/03/02 04:58:17;;;;;;;115.80;45.10;;;;;;;-6.22;67.84;101431.67;52792;1271;1016597;-77
2022/03/02 05:00:48;;;;;;;116.70;43.10;;;;;;;-6.20;67.87;101431.20;52857;1271;1016467;-77
2022/03/02 05:03:20;;;;;;;120.70;44.30;;;;;;;-6.18;67.72;101427.28;52852;1271;1017148;-79
2022/03/02 05:05:51;;;;;;;117.60;47.30;;;;;;;-6.19;67.79;101427.52;52917;1271;1016500;-78
2022/03/02 05:08:22;;;;;;;118.80;46.50;;;;;;;-6.20;67.66;101425.92;52810;1271;1016768;-78
2022/03/02 05:10:53;;;;;;;121.10;44.40;;;;;;;-6.20;67.64;101427.93;52900;1271;1016391;-77
2022/03/02 05:13:24;;;;;;;109.60;47.70;;;;;;;-6.25;67.65;101426.45;52920;1271;1017836;-77
2022/03/02 05:15:55;;;;;;;121.40;49.40;;;;;;;-6.31;67.80;101430.56;52790;1271;1016279;-78
2022/03/02 05:18:27;;;;;;;116.10;46.30;;;;;;;-6.33;67.94;101433.39;52969;1271;1016132;-82
2022/03/02 05:20:59;;;;;;;116.30;47.20;;;;;;;-6.32;67.88;101434.59;53103;1270;1016108;-79
2022/03/02 05:23:30;;;;;;;128.90;48.00;;;;;;;-6.32;67.93;101433.03;52843;1270;1015632;-77
2022/03/02 05:26:02;;;;;;;116.80;48.60;;;;;;;-6.34;67.94;101435.52;52892;1271;1016624;-77
2022/03/02 05:28:34;;;;;;;120.50;47.90;;;;;;;-6.36;67.98;101436.15;52871;1271;1016617;-76
2022/03/02 05:31:05;;;;;;;120.30;45.20;;;;;;;-6.39;68.15;101437.59;52998;1271;1016201;-77
2022/03/02 05:33:36;;;;;;;122.40;47.90;;;;;;;-6.39;68.11;101440.02;52836;1271;1016129;-77
2022/03/02 05:36:08;;;;;;;112.90;46.70;;;;;;;-6.35;68.25;101437.80;52936;1271;1019054;-78
2022/03/02 05:38:39;;;;;;;121.50;48.50;;;;;;;-6.32;68.14;101437.44;52831;1271;1016321;-77
2022/03/02 05:41:10;;;;;;;129.40;48.20;;;;;;;-6.29;68.10;101441.75;52976;1271;1016460;-77
2022/03/02 05:43:42;;;;;;;124.40;49.50;;;;;;;-6.26;68.03;101444.48;53080;1260;1016496;-56
2022/03/02 05:46:14;;;;;;;118.70;45.90;;;;;;;-6.23;68.04;101447.16;52758;1273;1016579;-56
2022/03/02 05:48:46;;;;;;;128.20;48.80;;;;;;;-6.20;68.06;101450.36;52671;1273;1016703;-52
2022/03/02 05:51:18;;;;;;;125.30;49.40;;;;;;;-6.18;67.93;101447.94;52693;1273;1016604;-56
2022/03/02 05:53:49;;;;;;;134.60;52.60;;;;;;;-6.18;68.00;101450.67;52908;1273;1016460;-57
2022/03/02 05:56:23;;;;;;;131.60;52.80;;;;;;;-6.16;68.03;101449.27;52559;1273;1016758;-55
2022/03/02 05:58:55;;;;;;;127.30;52.30;;;;;;;-6.14;68.04;101449.58;52646;1273;1016967;-64
2022/03/02 06:01:27;;;;;;;123.30;50.40;;;;;;;-6.11;68.12;101449.58;52609;1273;1016642;-59
2022/03/02 06:04:03;;;;;;;127.30;51.10;;;;;;;-6.10;68.09;101447.84;52666;1273;1016338;-53
2022/03/02 06:06:36;;;;;;;145.10;57.70;;;;;;;-6.08;68.22;101445.50;52647;1273;1016637;-56
2022/03/02 06:09:11;;;;;;;134.30;56.20;;;;;;;-6.06;68.40;101442.67;52530;1274;1016440;-55
2022/03/02 06:11:44;;;;;;;137.60;56.50;;;;;;;-6.06;68.64;101445.26;52695;1273;1016493;-52
2022/03/02 06:14:16;;;;;;;141.40;58.80;;;;;;;-6.05;68.89;101446.27;52724;1273;1016370;-56
2022/03/02 06:16:50;;;;;;;152.00;66.00;;;;;;;-6.05;68.88;101445.77;52552;1274;1017164;-54
2022/03/02 06:19:23;;;;;;;153.80;65.80;;;;;;;-6.02;68.88;101450.11;52670;1273;1016359;-58
2022/03/02 06:21:55;;;;;;;158.30;65.50;;;;;;;-6.00;69.17;101449.80;52577;1273;1016364;-53
2022/03/02 06:24:28;;;;;;;157.50;64.00;;;;;;;-6.01;69.40;101450.48;52562;1273;1016600;-61
2022/03/02 06:27:02;;;;;;;146.30;62.80;;;;;;;-5.99;69.42;101448.19;52694;1273;1016087;-52
2022/03/02 06:29:34;;;;;;;146.00;58.40;;;;;;;-5.98;69.72;101445.29;52788;1273;1016225;-53
2022/03/02 06:32:07;;;;;;;142.10;60.70;;;;;;;-5.96;69.86;101442.80;52642;1273;1016109;-57
2022/03/02 06:34:39;;;;;;;137.60;61.90;;;;;;;-5.94;70.19;101442.54;52599;1273;1016699;-57
2022/03/02 06:37:11;;;;;;;141.90;60.30;;;;;;;-5.92;70.65;101441.35;52683;1273;1016611;-57
2022/03/02 06:39:43;;;;;;;129.90;56.80;;;;;;;-5.90;70.98;101440.27;52649;1273;1015828;-58
2022/03/02 06:42:23;;;;;;;129.70;55.30;;;;;;;-5.86;71.23;101435.90;52734;1273;1018601;-52
2022/03/02 06:45:01;;;;;;;141.00;58.10;;;;;;;-5.81;71.54;101434.93;52619;1273;1016481;-56
2022/03/02 06:47:38;;;;;;;146.40;58.90;;;;;;;-5.76;71.95;101431.05;52592;1273;1016336;-58
2022/03/02 06:50:12;;;;;;;144.20;56.70;;;;;;;-5.70;72.19;101429.03;52637;1273;1016590;-61
2022/03/02 06:52:46;;;;;;;123.30;53.70;;;;;;;-5.65;72.37;101431.84;53096;1273;1016518;-57
2022/03/02 06:55:20;;;;;;;140.90;56.50;;;;;;;-5.58;72.56;101429.66;52692;1273;1016379;-55
2022/03/02 06:57:56;;;;;;;122.30;49.20;;;;;;;-5.51;72.64;101426.94;52642;1273;1016710;-57
2022/03/02 07:00:27;;;;;;;120.50;48.40;;;;;;;-5.42;72.72;101432.09;52600;1273;1018069;-59
2022/03/02 07:03:05;;;;;;;133.00;52.70;;;;;;;-5.34;72.73;101433.28;52656;1273;1016913;-58
2022/03/02 07:05:37;;;;;;;124.40;53.10;;;;;;;-5.25;72.97;101430.19;52602;1273;1016406;-57
2022/03/02 07:08:09;;;;;;;138.10;55.30;;;;;;;-5.18;72.92;101428.02;52619;1273;1015784;-58
2022/03/02 07:10:40;;;;;;;150.10;58.70;;;;;;;-5.09;73.14;101431.00;52606;1273;1016161;-53
2022/03/02 07:13:12;;;;;;;157.70;60.30;;;;;;;-5.00;73.24;101428.30;52604;1273;1016110;-57
2022/03/02 07:15:44;;;;;;;140.90;58.70;;;;;;;-4.90;73.31;101425.01;52602;1273;1016464;-55
2022/03/02 07:18:16;;;;;;;144.50;58.60;;;;;;;-4.80;73.37;101424.96;52627;1273;1016403;-57
2022/03/02 07:20:51;;;;;;;143.20;62.10;;;;;;;-4.70;73.32;101421.58;52581;1273;1016334;-59
2022/03/02 07:23:24;;;;;;;139.30;59.20;;;;;;;-4.61;73.50;101419.13;52619;1273;1016240;-57
2022/03/02 07:25:59;;;;;;;155.20;62.20;;;;;;;-4.52;73.67;101414.23;52795;1273;1015926;-56
2022/03/02 07:28:33;;;;;;;144.80;60.60;;;;;;;-4.41;73.81;101415.59;52668;1273;1016532;-56
2022/03/02 07:31:04;;;;;;;123.20;55.40;;;;;;;-4.31;73.88;101419.46;52627;1273;1016387;-56
2022/03/02 07:33:42;;;;;;;110.40;49.40;;;;;;;-4.20;73.90;101415.06;52791;1273;1018866;-58
2022/03/02 07:36:14;;;;;;;100.40;42.00;;;;;;;-4.08;73.88;101416.61;52791;1273;1016553;-56
2022/03/02 07:38:46;;;;;;;106.40;42.90;;;;;;;-3.96;73.80;101417.84;52671;1273;1018397;-56
2022/03/02 07:41:18;;;;;;;94.20;36.90;;;;;;;-3.84;73.60;101418.66;52639;1273;1016665;-56
2022/03/02 07:43:50;;;;;;;90.10;37.40;;;;;;;-3.74;73.28;101416.98;52630;1273;1016142;-56
2022/03/02 07:46:25;;;;;;;92.70;40.10;;;;;;;-3.64;73.27;101419.06;52614;1273;1016568;-56
2022/03/02 07:48:58;;;;;;;92.40;39.20;;;;;;;-3.53;73.46;101419.77;52615;1273;1016119;-57
2022/03/02 07:51:36;;;;;;;81.00;35.00;;;;;;;-3.43;73.09;101419.40;52497;1273;1016638;-59
2022/03/02 07:54:09;;;;;;;86.30;35.30;;;;;;;-3.34;72.97;101419.20;52513;1273;1016695;-56
2022/03/02 07:56:41;;;;;;;89.60;37.70;;;;;;;-3.25;72.80;101417.91;52592;1273;1016923;-56
2022/03/02 07:59:14;;;;;;;81.90;33.80;;;;;;;-3.16;72.49;101417.33;52682;1273;1016085;-57
2022/03/02 08:01:48;;;;;;;79.40;30.60;;;;;;;-3.05;72.41;101413.05;52615;1273;1016261;-55
2022/03/02 08:04:23;;;;;;;70.50;31.40;;;;;;;-2.97;72.20;101415.09;52631;1273;1016561;-56
2022/03/02 08:06:55;;;;;;;73.60;30.40;;;;;;;-2.87;72.10;101418.72;52625;1273;1020140;-57
2022/03/02 08:09:27;;;;;;;72.60;30.50;;;;;;;-2.78;72.12;101414.70;52607;1273;1016439;-57
2022/03/02 08:12:00;;;;;;;76.10;32.00;;;;;;;-2.68;72.05;101413.09;52595;1273;1016079;-56
2022/03/02 08:14:34;;;;;;;63.60;28.40;;;;;;;-2.59;72.26;101407.27;52545;1273;1016513;-56
2022/03/02 08:17:06;;;;;;;61.70;26.00;;;;;;;-2.48;71.95;101405.10;52640;1273;1016589;-57
2022/03/02 08:19:38;;;;;;;67.30;26.20;;;;;;;-2.39;71.62;101407.84;52508;1273;1016013;-56
2022/03/02 08:22:16;;;;;;;65.20;24.60;;;;;;;-2.32;71.69;101403.92;52595;1273;1016308;-57
2022/03/02 08:24:55;;;;;;;63.70;26.50;;;;;;;-2.23;71.57;101409.22;52593;1273;1016139;-54
2022/03/02 08:27:27;;;;;;;64.30;24.90;;;;;;;-2.11;71.54;101406.16;52514;1273;1016563;-56
2022/03/02 08:30:01;;;;;;;67.40;25.30;;;;;;;-2.01;71.32;101408.66;52601;1273;1015962;-57
2022/03/02 08:32:37;;;;;;;57.00;23.10;;;;;;;-1.96;71.07;101407.59;52582;1273;1016118;-55
2022/03/02 08:35:11;;;;;;;61.30;23.90;;;;;;;-1.88;70.98;101403.17;52451;1274;1017044;-56
2022/03/02 08:37:44;;;;;;;62.90;25.10;;;;;;;-1.78;70.87;101395.36;52540;1273;1016434;-57
2022/03/02 08:40:16;;;;;;;63.80;25.90;;;;;;;-1.70;70.63;101397.05;52610;1273;1016103;-57
2022/03/02 08:42:50;;;;;;;64.30;24.40;;;;;;;-1.62;70.66;101394.50;52620;1273;1016366;-57
2022/03/02 08:45:22;;;;;;;56.10;25.90;;;;;;;-1.54;70.47;101397.20;52525;1273;1016287;-57
2022/03/02 08:47:54;;;;;;;60.90;27.10;;;;;;;-1.46;70.33;101392.88;52632;1273;1016702;-57
2022/03/02 08:50:26;;;;;;;59.50;26.00;;;;;;;-1.39;70.30;101393.50;52717;1273;1016649;-55
2022/03/02 08:52:58;;;;;;;62.10;24.70;;;;;;;-1.34;70.25;101392.65;52636;1273;1016208;-57
2022/03/02 08:55:32;;;;;;;67.50;26.90;;;;;;;-1.28;70.18;101391.09;52703;1273;1015877;-57
2022/03/02 08:58:04;;;;;;;70.10;28.80;;;;;;;-1.21;70.06;101386.70;52581;1273;1016608;-55
2022/03/02 09:00:36;;;;;;;61.70;29.10;;;;;;;-1.12;70.08;101385.73;52601;1273;1016609;-57
2022/03/02 09:03:10;;;;;;;50.30;22.80;;;;;;;-1.01;69.90;101382.89;52566;1273;1020006;-54
2022/03/02 09:05:43;;;;;;;57.90;23.40;;;;;;;-0.89;69.77;101376.46;52538;1273;1016030;-54
2022/03/02 09:08:15;;;;;;;56.70;24.60;;;;;;;-0.80;69.51;101370.76;52722;1273;1018122;-55
2022/03/02 09:10:47;;;;;;;47.00;21.10;;;;;;;-0.72;69.60;101366.79;52768;1271;1016275;-57
2022/03/02 09:13:18;;;;;;;51.60;20.20;;;;;;;-0.65;69.13;101365.14;52910;1273;1016633;-57
2022/03/02 09:15:50;;;;;;;49.90;21.70;;;;;;;-0.56;69.25;101356.77;52590;1273;1016089;-57
2022/03/02 09:18:22;;;;;;;52.40;21.50;;;;;;;-0.49;69.25;101356.84;52587;1273;1016573;-56
2022/03/02 09:21:00;;;;;;;49.50;19.50;;;;;;;-0.42;68.91;101360.52;52777;1273;1016401;-55
2022/03/02 09:23:34;;;;;;;51.10;19.60;;;;;;;-0.35;68.76;101364.40;52655;1273;1016589;-59
2022/03/02 09:26:09;;;;;;;51.50;19.10;;;;;;;-0.27;68.49;101360.73;52358;1276;1016320;-58
2022/03/02 09:28:43;;;;;;;42.60;18.10;;;;;;;-0.18;68.51;101355.08;52607;1273;1016527;-58
2022/03/02 09:31:17;;;;;;;42.20;17.00;;;;;;;-0.12;68.41;101358.10;53618;1271;1018701;-57
2022/03/02 09:33:51;;;;;;;40.00;16.30;;;;;;;-0.06;68.02;101351.02;52547;1273;1015978;-57
2022/03/02 09:36:24;;;;;;;35.90;13.70;;;;;;;0.05;67.75;101351.10;52482;1273;1016559;-57
2022/03/02 09:38:56;;;;;;;33.60;13.30;;;;;;;0.16;67.36;101341.14;52623;1273;1016147;-57
2022/03/02 09:41:34;;;;;;;35.10;13.80;;;;;;;0.23;67.28;101336.33;52600;1273;1016133;-58
2022/03/02 09:44:07;;;;;;;43.30;16.00;;;;;;;0.29;67.16;101336.20;52640;1273;1016912;-57
2022/03/02 09:46:40;;;;;;;51.00;17.20;;;;;;;0.37;67.14;101339.39;52593;1275;1016507;-57
2022/03/02 09:49:13;;;;;;;40.30;16.40;;;;;;;0.48;67.28;101338.92;52698;1273;1015876;-56
2022/03/02 09:51:51;;;;;;;35.40;14.90;;;;;;;0.60;66.83;101333.79;52576;1273;1016657;-55
2022/03/02 09:54:24;;;;;;;37.50;13.10;;;;;;;0.69;66.73;101340.52;52617;1273;1019402;-57
2022/03/02 09:56:58;;;;;;;36.60;13.30;;;;;;;0.73;66.45;101337.30;52605;1273;1016449;-57
2022/03/02 09:59:36;;;;;;;39.80;15.30;;;;;;;0.80;66.35;101336.79;52639;1273;1017378;-56
2022/03/02 10:02:10;;;;;;;32.30;12.30;;;;;;;0.89;66.32;101334.63;52583;1273;1018146;-56
2022/03/02 10:04:51;;;;;;;36.80;13.50;;;;;;;0.95;65.67;101332.78;52727;1273;1016846;-56
2022/03/02 10:07:30;;;;;;;38.00;14.20;;;;;;;1.10;65.65;101328.64;52557;1273;1016547;-57
2022/03/02 10:10:10;;;;;;;34.80;12.60;;;;;;;1.21;65.49;101332.30;52768;1273;1016613;-57
2022/03/02 10:12:43;;;;;;;33.90;11.60;;;;;;;1.30;65.34;101325.65;52606;1273;1016271;-58
2022/03/02 10:15:16;;;;;;;36.30;13.80;;;;;;;1.37;65.37;101323.22;52557;1273;1016183;-58
2022/03/02 10:17:51;;;;;;;26.00;9.10;;;;;;;1.39;65.00;101316.08;52511;1273;1016570;-56
2022/03/02 10:20:25;;;;;;;21.70;8.10;;;;;;;1.43;64.38;101316.78;52577;1273;1016765;-56
2022/03/02 10:23:42;;;;;;;26.80;9.90;;;;;;;1.49;64.28;101313.73;52589;1273;1016502;-55
2022/03/02 10:26:19;;;;;;;29.70;11.70;;;;;;;1.60;64.26;101306.66;52329;1279;1016754;-56
2022/03/02 10:28:59;;;;;;;26.80;9.50;;;;;;;1.64;63.85;101304.37;52342;1279;1016458;-55
2022/03/02 10:31:44;;;;;;;25.10;8.20;;;;;;;1.68;63.49;101301.63;52372;1280;1016020;-56
2022/03/02 10:34:36;;;;;;;32.40;9.70;;;;;;;1.68;63.09;101298.16;52381;1281;1016374;-58
2022/03/02 10:37:18;;;;;;;26.90;9.20;;;;;;;1.76;62.97;101294.94;52583;1279;1016069;-56
2022/03/02 10:39:56;;;;;;;27.50;10.40;;;;;;;1.82;62.80;101294.14;52364;1280;1016586;-56
2022/03/02 10:42:30;;;;;;;28.40;10.70;;;;;;;1.87;62.02;101295.88;52393;1281;1016281;-60
2022/03/02 10:45:10;;;;;;;35.30;11.40;;;;;;;1.91;62.53;101293.42;52359;1279;1016252;-57
2022/03/02 10:47:49;;;;;;;29.60;10.10;;;;;;;1.91;62.13;101284.39;52442;1281;1016076;-54
2022/03/02 10:50:21;;;;;;;28.80;9.20;;;;;;;1.90;61.74;101282.74;52347;1279;1016418;-56
2022/03/02 10:52:55;;;;;;;32.10;10.10;;;;;;;1.94;61.51;101281.08;52430;1281;1019140;-53
2022/03/02 10:55:27;;;;;;;31.30;11.00;;;;;;;1.99;61.62;101278.40;52407;1281;1016822;-57
2022/03/02 10:58:01;;;;;;;29.60;10.20;;;;;;;2.04;61.73;101276.90;52669;1281;1016858;-55
2022/03/02 11:00:33;;;;;;;37.60;12.80;;;;;;;2.06;61.83;101273.91;52456;1273;1016353;-56
2022/03/02 11:03:05;;;;;;;28.30;10.40;;;;;;;2.09;61.13;101272.63;54045;1270;1015685;-55
2022/03/02 11:05:38;;;;;;;34.30;10.70;;;;;;;2.10;60.67;101269.65;52545;1273;1017434;-54
2022/03/02 11:08:10;;;;;;;29.20;10.70;;;;;;;2.14;60.39;101266.25;52638;1273;1016551;-57
2022/03/02 11:10:43;;;;;;;28.80;10.80;;;;;;;2.16;60.19;101259.88;52633;1273;1018638;-56
2022/03/02 11:13:15;;;;;;;28.70;11.00;;;;;;;2.23;59.97;101258.36;52611;1273;1016678;-55
2022/03/02 11:15:53;;;;;;;33.70;11.20;;;;;;;2.28;60.50;101252.52;52575;1273;1018696;-55